Qualifying - Blue
Course: Road America · 2026-09-05 01:55PM
Weather Conditions
Temp 74°F
(64–74°F range)
Temp type NORMAL
Track DRY
Precip 0.0 mm (NONE)
Humidity 83%
Wind 12 km/h
Cloud 61%
OVERALL
BY CLASS
| CLASS | POS | # | NAME | BEST LAP | GAP | INTERVAL | LAPS |
|---|---|---|---|---|---|---|---|
| GTD3 | 1 | 819 | ROBERT GEE | 2:16.913 | - | - | 7 |
| 2 | 194 | KEVIN CYR | 2:16.957 | 0.044 | 0.044 | 4 | |
| 3 | 751 | CHRIS DOOLEY | 2:17.078 | 0.165 | 0.121 | 7 | |
| 4 | 111 | NICOLAS GIGUERE | 2:17.373 | 0.460 | 0.295 | 7 | |
| 5 | 888 | JEFF BRETON | 2:17.761 | 0.848 | 0.388 | 7 | |
| 6 | 22 | JOHN EDDLEMON | 2:18.649 | 1.736 | 0.888 | 7 | |
| 7 | 90 | NICOLE ROBICHAUD | 2:18.898 | 1.985 | 0.249 | 6 | |
| 8 | 581 | MARK COOK | 2:19.198 | 2.285 | 0.300 | 7 | |
| 9 | 158 | SCOTT GILL | 2:19.877 | 2.964 | 0.679 | 3 | |
| 10 | 747 | BRAD WEBER | 2:19.971 | 3.058 | 0.094 | 7 | |
| 11 | 171 | LARRY WEXLER | 2:21.877 | 4.964 | 1.906 | 7 | |
| GTD2 | 1 | 109 | RYAN SZYJAKOWSKI | 2:20.104 | - | - | 6 |
| 2 | 14 | ARTHUR SOLTYS | 2:21.871 | 1.767 | 1.767 | 3 | |
| 3 | 62 | COLIN HAUER | 2:23.107 | 3.003 | 1.236 | 7 | |
| 4 | 60 | DAVID WELLS | 2:23.740 | 3.636 | 0.633 | 7 | |
| 5 | 221 | PIERRE PAQUET | 2:25.135 | 5.031 | 1.395 | 7 | |
| GTB1 | 1 | 9 | ANGUS ROGERS | 2:22.962 | - | - | 7 |
| 2 | 98 | ED DUNNE | 2:24.412 | 1.450 | 1.450 | 7 | |
| 3 | 726 | RUSSEL MARTORANA | 2:26.526 | 3.564 | 2.114 | 7 | |
| 4 | 951 | ANDREW BURKE | 2:27.133 | 4.171 | 0.607 | 6 | |
| 5 | 696 | MIKE ORIGER | 2:27.785 | 4.823 | 0.652 | 4 | |
| 6 | 498 | COLLIN SCHMITZ | 2:29.490 | 6.528 | 1.705 | 6 | |
| 7 | 444 | TONY CLINTON | 2:30.719 | 7.757 | 1.229 | 6 | |
| 8 | 4 | SAM MAMMANO | 2:33.281 | 10.319 | 2.562 | 6 | |
| 9 | 497 | MICHAEL SCHMITZ | 3:03.757 | 40.795 | 30.476 | 2 | |
| GT3 | 1 | 199 | BOB VAN ZANT | 2:23.672 | - | - | 7 |
| 2 | 079 | CHARLES LEW | 2:24.451 | 0.779 | 0.779 | 7 | |
| 3 | 689 | ROBERT BAKER | 2:26.111 | 2.439 | 1.660 | 3 | |
| 4 | 127 | STEVE GARRISON | 2:29.279 | 5.607 | 3.168 | 6 | |
| 5 | 447 | JON DUNSKI | 2:30.139 | 6.467 | 0.860 | 6 | |
| GTD1 | 1 | 144 | JEFF ROBINS | 2:25.070 | - | - | 3 |
| GT4 | 1 | 66 | CLAUDIO KAEMPF | 2:25.722 | - | - | 3 |
| 2 | 5 | PATRICK PERONNET | 2:42.011 | 16.289 | 16.289 | 6 | |
| SP997 | 1 | 131 | WESTON JEZEK | 2:25.854 | - | - | 7 |
| SP996 | 1 | 517 | ALEX WILLIAMS | 2:30.125 | - | - | 6 |
| SPC | 1 | 93 | MATT DISTEFANO | 2:30.441 | - | - | 2 |
| 2 | 147 | WALEED CHEHADI | 2:30.616 | 0.175 | 0.175 | 5 | |
| 3 | 556 | DOMINICK BELVEDERE | 2:31.409 | 0.968 | 0.793 | 6 | |
| 4 | 39 | TIM LAMBIE | 2:31.552 | 1.111 | 0.143 | 6 | |
| 5 | 97 | IAN ROGENSKI | 2:34.635 | 4.194 | 3.083 | 5 | |
| 6 | 42 | PERRY LOWERY | 2:35.003 | 4.562 | 0.368 | 3 | |
| 7 | 719 | TRES DRAWHORN | 2:35.114 | 4.673 | 0.111 | 4 | |
| 8 | 122 | MICHAEL VENABLE | 2:36.401 | 5.960 | 1.287 | 6 | |
| 9 | 19 | JASON KNUPP | 2:39.141 | 8.700 | 2.740 | 6 | |
| GTB3 | 1 | 224 | KIERON O'ROURKE | 3:00.957 | - | - | 2 |
Pole Position